| Date | Time | Temp. (oF) | Dew Point (oF) | Rel. Hum. (%) | Press. (in.) | Wind Dir. (deg.) | Wind Speed (mph) | Hourly Rainfall (i n.) |
|
|---|---|---|---|---|---|---|---|---|---|
| 1 | 11/25 | 24:00 | 58 | 55 | 92 | 30.31 | 140 | 0 | 0.01 |
| 2 | 11/24 | 23:00 | 58 | 55 | 91 | 30.32 | 140 | 0 | 0.00 |
| 3 | 11/24 | 22:00 | 59 | 56 | 90 | 30.32 | 140 | 0 | 0.00 |
| 4 | 11/24 | 21:00 | 59 | 55 | 89 | 30.31 | 140 | 1 | 0.00 |
| 5 | 11/24 | 20:00 | 59 | 55 | 88 | 30.32 | 130 | 2 | 0.00 |
| 6 | 11/24 | 19:00 | 59 | 55 | 88 | 30.32 | 110 | 2 | 0.00 |
| 7 | 11/24 | 18:00 | 60 | 56 | 87 | 30.31 | 100 | 2 | 0.00 |
| 8 | 11/24 | 17:00 | 61 | 55 | 83 | 30.30 | 120 | 4 | 0.00 |
| 9 | 11/24 | 16:00 | 63 | 55 | 77 | 30.30 | 190 | 6 | 0.00 |
| 10 | 11/24 | 15:00 | 65 | 57 | 77 | 30.31 | 130 | 2 | 0.00 |
| 11 | 11/24 | 14:00 | 66 | 57 | 75 | 30.31 | 150 | 6 | 0.00 |
| 12 | 11/24 | 13:00 | 66 | 58 | 76 | 30.31 | 270 | 4 | 0.00 |
| 13 | 11/24 | 12:00 | 65 | 57 | 78 | 30.32 | 350 | 6 | 0.00 |
| 14 | 11/24 | 11:00 | 63 | 56 | 80 | 30.34 | 140 | 4 | 0.00 |
| 15 | 11/24 | 10:00 | 60 | 56 | 87 | 30.35 | 310 | 2 | 0.01 |
| 16 | 11/24 | 09:00 | 59 | 55 | 89 | 30.34 | 330 | 2 | 0.00 |
| 17 | 11/24 | 08:00 | 58 | 55 | 90 | 30.34 | 140 | 4 | 0.00 |
| 18 | 11/24 | 07:00 | 58 | 55 | 90 | 30.34 | 90 | 0 | 0.00 |
| 19 | 11/24 | 06:00 | 57 | 54 | 91 | 30.32 | 130 | 2 | 0.00 |
| 20 | 11/24 | 05:00 | 57 | 54 | 91 | 30.33 | 190 | 1 | 0.00 |
| 21 | 11/24 | 04:00 | 58 | 55 | 91 | 30.34 | 290 | 1 | 0.00 |
| 22 | 11/24 | 03:00 | 57 | 54 | 93 | 30.34 | 120 | 0 | 0.00 |
| 23 | 11/24 | 02:00 | 58 | 55 | 93 | 30.36 | 130 | 4 | 0.00 |
| 24 | 11/24 | 01:00 | 58 | 55 | 93 | 30.35 | 110 | 1 | 0.00 |